sensor_id;sensor_type;location;lat;lon;timestamp;P1;durP1;ratioP1;P2;durP2;ratioP2
65315;SDS011;51920;53.952;10.292;2022-10-14T00:00:20;55.63;;;23.10;;
65315;SDS011;51920;53.952;10.292;2022-10-14T00:02:47;52.67;;;21.35;;
65315;SDS011;51920;53.952;10.292;2022-10-14T00:05:13;60.17;;;24.48;;
65315;SDS011;51920;53.952;10.292;2022-10-14T00:07:39;53.07;;;22.27;;
65315;SDS011;51920;53.952;10.292;2022-10-14T00:10:05;67.47;;;24.97;;
65315;SDS011;51920;53.952;10.292;2022-10-14T00:12:31;62.85;;;25.33;;
65315;SDS011;51920;53.952;10.292;2022-10-14T00:14:57;63.80;;;25.40;;
65315;SDS011;51920;53.952;10.292;2022-10-14T00:17:23;61.63;;;24.43;;
65315;SDS011;51920;53.952;10.292;2022-10-14T00:19:50;70.25;;;26.75;;
65315;SDS011;51920;53.952;10.292;2022-10-14T00:22:16;76.37;;;27.43;;
65315;SDS011;51920;53.952;10.292;2022-10-14T00:24:41;59.50;;;24.30;;
65315;SDS011;51920;53.952;10.292;2022-10-14T00:27:07;68.07;;;25.87;;
65315;SDS011;51920;53.952;10.292;2022-10-14T00:29:33;60.40;;;24.45;;
65315;SDS011;51920;53.952;10.292;2022-10-14T00:31:59;58.57;;;23.13;;
65315;SDS011;51920;53.952;10.292;2022-10-14T00:34:24;60.93;;;24.30;;
65315;SDS011;51920;53.952;10.292;2022-10-14T00:36:52;52.28;;;21.55;;
65315;SDS011;51920;53.952;10.292;2022-10-14T00:39:19;54.72;;;22.73;;
65315;SDS011;51920;53.952;10.292;2022-10-14T00:41:44;61.30;;;23.77;;
65315;SDS011;51920;53.952;10.292;2022-10-14T00:46:36;51.20;;;20.90;;
65315;SDS011;51920;53.952;10.292;2022-10-14T00:49:08;60.72;;;23.65;;
65315;SDS011;51920;53.952;10.292;2022-10-14T00:51:40;54.70;;;22.43;;
65315;SDS011;51920;53.952;10.292;2022-10-14T00:54:08;53.15;;;22.52;;
65315;SDS011;51920;53.952;10.292;2022-10-14T00:56:37;56.60;;;23.73;;
65315;SDS011;51920;53.952;10.292;2022-10-14T00:59:08;59.65;;;24.23;;
65315;SDS011;51920;53.952;10.292;2022-10-14T01:01:34;60.63;;;24.63;;
65315;SDS011;51920;53.952;10.292;2022-10-14T01:04:00;60.57;;;23.77;;
65315;SDS011;51920;53.952;10.292;2022-10-14T01:09:19;60.80;;;23.90;;
65315;SDS011;51920;53.952;10.292;2022-10-14T01:17:38;63.00;;;24.17;;
65315;SDS011;51920;53.952;10.292;2022-10-14T01:29:55;63.70;;;24.23;;
65315;SDS011;51920;53.952;10.292;2022-10-14T01:32:46;55.75;;;22.33;;
65315;SDS011;51920;53.952;10.292;2022-10-14T01:35:42;56.22;;;21.95;;
65315;SDS011;51920;53.952;10.292;2022-10-14T01:38:31;58.27;;;21.70;;
65315;SDS011;51920;53.952;10.292;2022-10-14T01:43:49;71.07;;;26.20;;
65315;SDS011;51920;53.952;10.292;2022-10-14T01:46:17;76.40;;;27.73;;
65315;SDS011;51920;53.952;10.292;2022-10-14T01:48:46;82.78;;;29.83;;
65315;SDS011;51920;53.952;10.292;2022-10-14T01:51:17;80.63;;;28.67;;
65315;SDS011;51920;53.952;10.292;2022-10-14T01:53:51;67.40;;;26.23;;
65315;SDS011;51920;53.952;10.292;2022-10-14T01:56:22;70.38;;;25.75;;
65315;SDS011;51920;53.952;10.292;2022-10-14T01:58:48;72.93;;;27.52;;
65315;SDS011;51920;53.952;10.292;2022-10-14T02:01:17;75.60;;;28.88;;
65315;SDS011;51920;53.952;10.292;2022-10-14T02:03:44;77.13;;;28.93;;
65315;SDS011;51920;53.952;10.292;2022-10-14T02:06:16;75.35;;;28.15;;
65315;SDS011;51920;53.952;10.292;2022-10-14T02:14:38;59.63;;;23.75;;
65315;SDS011;51920;53.952;10.292;2022-10-14T02:17:19;66.73;;;26.20;;
65315;SDS011;51920;53.952;10.292;2022-10-14T02:19:51;66.07;;;25.55;;
65315;SDS011;51920;53.952;10.292;2022-10-14T02:22:35;68.15;;;26.67;;
65315;SDS011;51920;53.952;10.292;2022-10-14T02:25:08;67.82;;;26.75;;
65315;SDS011;51920;53.952;10.292;2022-10-14T02:27:40;73.00;;;27.33;;
65315;SDS011;51920;53.952;10.292;2022-10-14T02:30:08;73.73;;;27.20;;
65315;SDS011;51920;53.952;10.292;2022-10-14T02:32:35;68.20;;;27.35;;
65315;SDS011;51920;53.952;10.292;2022-10-14T02:35:02;62.92;;;25.10;;
65315;SDS011;51920;53.952;10.292;2022-10-14T02:37:29;69.80;;;27.30;;
65315;SDS011;51920;53.952;10.292;2022-10-14T02:39:59;68.18;;;25.80;;
65315;SDS011;51920;53.952;10.292;2022-10-14T02:42:31;67.43;;;25.83;;
65315;SDS011;51920;53.952;10.292;2022-10-14T02:44:58;68.88;;;26.23;;
65315;SDS011;51920;53.952;10.292;2022-10-14T02:47:24;65.80;;;26.63;;
65315;SDS011;51920;53.952;10.292;2022-10-14T02:49:51;81.78;;;29.10;;
65315;SDS011;51920;53.952;10.292;2022-10-14T02:52:17;65.97;;;25.83;;
65315;SDS011;51920;53.952;10.292;2022-10-14T02:54:43;72.30;;;27.02;;
65315;SDS011;51920;53.952;10.292;2022-10-14T02:57:08;65.65;;;25.33;;
65315;SDS011;51920;53.952;10.292;2022-10-14T02:59:34;68.30;;;26.47;;
65315;SDS011;51920;53.952;10.292;2022-10-14T03:02:00;70.70;;;25.50;;
65315;SDS011;51920;53.952;10.292;2022-10-14T03:04:28;61.07;;;24.10;;
65315;SDS011;51920;53.952;10.292;2022-10-14T03:06:53;70.22;;;27.08;;
65315;SDS011;51920;53.952;10.292;2022-10-14T03:09:21;69.70;;;26.35;;
65315;SDS011;51920;53.952;10.292;2022-10-14T03:11:48;58.67;;;23.55;;
65315;SDS011;51920;53.952;10.292;2022-10-14T03:14:16;65.63;;;24.58;;
65315;SDS011;51920;53.952;10.292;2022-10-14T03:16:42;64.87;;;24.53;;
65315;SDS011;51920;53.952;10.292;2022-10-14T03:19:11;59.75;;;22.95;;
65315;SDS011;51920;53.952;10.292;2022-10-14T03:21:42;63.58;;;24.95;;
65315;SDS011;51920;53.952;10.292;2022-10-14T03:24:14;62.33;;;24.67;;
65315;SDS011;51920;53.952;10.292;2022-10-14T03:26:40;62.40;;;24.30;;
65315;SDS011;51920;53.952;10.292;2022-10-14T03:29:06;66.70;;;25.13;;
65315;SDS011;51920;53.952;10.292;2022-10-14T03:31:50;62.88;;;24.42;;
65315;SDS011;51920;53.952;10.292;2022-10-14T03:34:22;63.22;;;23.85;;
65315;SDS011;51920;53.952;10.292;2022-10-14T03:36:56;77.65;;;27.63;;
65315;SDS011;51920;53.952;10.292;2022-10-14T03:39:23;57.87;;;23.03;;
65315;SDS011;51920;53.952;10.292;2022-10-14T03:41:50;60.42;;;24.02;;
65315;SDS011;51920;53.952;10.292;2022-10-14T03:44:20;62.40;;;23.95;;
65315;SDS011;51920;53.952;10.292;2022-10-14T03:47:06;66.38;;;24.33;;
65315;SDS011;51920;53.952;10.292;2022-10-14T03:49:32;64.82;;;24.70;;
65315;SDS011;51920;53.952;10.292;2022-10-14T03:52:03;78.13;;;26.23;;
65315;SDS011;51920;53.952;10.292;2022-10-14T03:54:32;59.63;;;23.50;;
65315;SDS011;51920;53.952;10.292;2022-10-14T03:56:58;61.58;;;23.58;;
65315;SDS011;51920;53.952;10.292;2022-10-14T03:59:25;59.03;;;23.73;;
65315;SDS011;51920;53.952;10.292;2022-10-14T04:01:51;63.97;;;23.53;;
65315;SDS011;51920;53.952;10.292;2022-10-14T04:04:21;64.15;;;24.52;;
65315;SDS011;51920;53.952;10.292;2022-10-14T04:06:46;70.50;;;25.20;;
65315;SDS011;51920;53.952;10.292;2022-10-14T04:09:12;61.40;;;23.77;;
65315;SDS011;51920;53.952;10.292;2022-10-14T04:11:40;60.70;;;22.00;;
65315;SDS011;51920;53.952;10.292;2022-10-14T04:14:09;66.35;;;25.25;;
65315;SDS011;51920;53.952;10.292;2022-10-14T04:16:42;49.97;;;20.42;;
65315;SDS011;51920;53.952;10.292;2022-10-14T04:19:10;56.88;;;21.42;;
65315;SDS011;51920;53.952;10.292;2022-10-14T04:21:38;52.20;;;20.80;;
65315;SDS011;51920;53.952;10.292;2022-10-14T04:24:05;59.07;;;22.87;;
65315;SDS011;51920;53.952;10.292;2022-10-14T04:26:54;59.17;;;22.63;;
65315;SDS011;51920;53.952;10.292;2022-10-14T04:29:42;54.10;;;22.23;;
65315;SDS011;51920;53.952;10.292;2022-10-14T04:32:14;60.10;;;23.67;;
65315;SDS011;51920;53.952;10.292;2022-10-14T04:34:41;50.50;;;20.70;;
65315;SDS011;51920;53.952;10.292;2022-10-14T04:37:09;57.53;;;22.33;;
65315;SDS011;51920;53.952;10.292;2022-10-14T04:39:44;50.45;;;21.52;;
65315;SDS011;51920;53.952;10.292;2022-10-14T04:42:10;60.20;;;24.23;;
65315;SDS011;51920;53.952;10.292;2022-10-14T04:44:35;57.77;;;21.93;;
65315;SDS011;51920;53.952;10.292;2022-10-14T04:47:02;55.42;;;21.85;;
65315;SDS011;51920;53.952;10.292;2022-10-14T04:49:28;56.75;;;21.80;;
65315;SDS011;51920;53.952;10.292;2022-10-14T04:52:14;54.88;;;20.45;;
65315;SDS011;51920;53.952;10.292;2022-10-14T04:54:46;51.03;;;19.15;;
65315;SDS011;51920;53.952;10.292;2022-10-14T04:57:12;56.47;;;22.03;;
65315;SDS011;51920;53.952;10.292;2022-10-14T04:59:38;51.08;;;20.13;;
65315;SDS011;51920;53.952;10.292;2022-10-14T05:02:12;51.13;;;20.40;;
65315;SDS011;51920;53.952;10.292;2022-10-14T05:04:44;50.53;;;19.93;;
65315;SDS011;51920;53.952;10.292;2022-10-14T05:07:10;56.20;;;21.55;;
65315;SDS011;51920;53.952;10.292;2022-10-14T05:09:36;48.35;;;19.98;;
65315;SDS011;51920;53.952;10.292;2022-10-14T05:12:04;54.73;;;21.10;;
65315;SDS011;51920;53.952;10.292;2022-10-14T05:14:40;54.42;;;21.75;;
65315;SDS011;51920;53.952;10.292;2022-10-14T05:17:16;50.60;;;21.20;;
65315;SDS011;51920;53.952;10.292;2022-10-14T05:19:41;47.20;;;19.33;;
65315;SDS011;51920;53.952;10.292;2022-10-14T05:22:07;56.17;;;21.20;;
65315;SDS011;51920;53.952;10.292;2022-10-14T05:24:38;55.47;;;21.13;;
65315;SDS011;51920;53.952;10.292;2022-10-14T05:27:03;52.40;;;18.93;;
65315;SDS011;51920;53.952;10.292;2022-10-14T05:29:30;54.20;;;20.88;;
65315;SDS011;51920;53.952;10.292;2022-10-14T05:31:56;52.60;;;20.90;;
65315;SDS011;51920;53.952;10.292;2022-10-14T05:34:43;49.35;;;19.25;;
65315;SDS011;51920;53.952;10.292;2022-10-14T05:37:14;51.40;;;20.88;;
65315;SDS011;51920;53.952;10.292;2022-10-14T05:39:45;53.03;;;21.60;;
65315;SDS011;51920;53.952;10.292;2022-10-14T05:42:12;50.80;;;20.58;;
65315;SDS011;51920;53.952;10.292;2022-10-14T05:44:39;54.15;;;21.13;;
65315;SDS011;51920;53.952;10.292;2022-10-14T05:47:05;57.90;;;23.07;;
65315;SDS011;51920;53.952;10.292;2022-10-14T05:49:31;60.40;;;22.90;;
65315;SDS011;51920;53.952;10.292;2022-10-14T05:51:59;59.30;;;23.42;;
65315;SDS011;51920;53.952;10.292;2022-10-14T05:54:24;55.63;;;23.67;;
65315;SDS011;51920;53.952;10.292;2022-10-14T05:56:53;62.28;;;22.65;;
65315;SDS011;51920;53.952;10.292;2022-10-14T05:59:18;69.40;;;25.03;;
65315;SDS011;51920;53.952;10.292;2022-10-14T06:01:45;59.70;;;23.08;;
65315;SDS011;51920;53.952;10.292;2022-10-14T06:04:17;58.23;;;21.90;;
65315;SDS011;51920;53.952;10.292;2022-10-14T06:06:44;58.43;;;21.67;;
65315;SDS011;51920;53.952;10.292;2022-10-14T06:09:09;63.72;;;24.10;;
65315;SDS011;51920;53.952;10.292;2022-10-14T06:11:35;63.83;;;22.80;;
65315;SDS011;51920;53.952;10.292;2022-10-14T06:14:01;73.38;;;25.73;;
65315;SDS011;51920;53.952;10.292;2022-10-14T06:16:27;64.90;;;23.38;;
65315;SDS011;51920;53.952;10.292;2022-10-14T06:18:53;67.03;;;23.67;;
65315;SDS011;51920;53.952;10.292;2022-10-14T06:21:20;69.85;;;23.83;;
65315;SDS011;51920;53.952;10.292;2022-10-14T06:23:45;78.37;;;26.67;;
65315;SDS011;51920;53.952;10.292;2022-10-14T06:26:11;76.27;;;25.77;;
65315;SDS011;51920;53.952;10.292;2022-10-14T06:28:36;76.57;;;25.83;;
65315;SDS011;51920;53.952;10.292;2022-10-14T06:31:02;72.03;;;25.13;;
65315;SDS011;51920;53.952;10.292;2022-10-14T06:33:28;70.17;;;23.27;;
65315;SDS011;51920;53.952;10.292;2022-10-14T06:35:54;72.07;;;25.53;;
65315;SDS011;51920;53.952;10.292;2022-10-14T06:38:20;73.65;;;25.90;;
65315;SDS011;51920;53.952;10.292;2022-10-14T06:40:50;78.70;;;26.30;;
65315;SDS011;51920;53.952;10.292;2022-10-14T06:43:16;67.68;;;24.63;;
65315;SDS011;51920;53.952;10.292;2022-10-14T06:45:42;75.53;;;25.53;;
65315;SDS011;51920;53.952;10.292;2022-10-14T06:48:08;68.75;;;24.27;;
65315;SDS011;51920;53.952;10.292;2022-10-14T06:50:33;71.00;;;24.00;;
65315;SDS011;51920;53.952;10.292;2022-10-14T06:52:58;70.90;;;24.03;;
65315;SDS011;51920;53.952;10.292;2022-10-14T06:55:24;70.13;;;24.77;;
65315;SDS011;51920;53.952;10.292;2022-10-14T06:57:49;67.15;;;23.00;;
65315;SDS011;51920;53.952;10.292;2022-10-14T07:00:15;66.27;;;22.00;;
65315;SDS011;51920;53.952;10.292;2022-10-14T07:02:41;73.72;;;25.00;;
65315;SDS011;51920;53.952;10.292;2022-10-14T07:05:06;75.10;;;24.20;;
65315;SDS011;51920;53.952;10.292;2022-10-14T07:07:32;70.60;;;23.57;;
65315;SDS011;51920;53.952;10.292;2022-10-14T07:09:58;66.88;;;23.50;;
65315;SDS011;51920;53.952;10.292;2022-10-14T07:12:23;69.97;;;23.87;;
65315;SDS011;51920;53.952;10.292;2022-10-14T07:14:49;62.10;;;21.90;;
65315;SDS011;51920;53.952;10.292;2022-10-14T07:17:15;63.10;;;21.23;;
65315;SDS011;51920;53.952;10.292;2022-10-14T07:19:40;62.47;;;21.47;;
65315;SDS011;51920;53.952;10.292;2022-10-14T07:22:05;58.53;;;20.70;;
65315;SDS011;51920;53.952;10.292;2022-10-14T07:24:31;56.97;;;20.05;;
65315;SDS011;51920;53.952;10.292;2022-10-14T07:26:56;64.07;;;21.57;;
65315;SDS011;51920;53.952;10.292;2022-10-14T07:29:22;61.70;;;21.40;;
65315;SDS011;51920;53.952;10.292;2022-10-14T07:31:48;62.10;;;22.17;;
65315;SDS011;51920;53.952;10.292;2022-10-14T07:34:13;54.20;;;19.63;;
65315;SDS011;51920;53.952;10.292;2022-10-14T07:36:39;57.50;;;20.63;;
65315;SDS011;51920;53.952;10.292;2022-10-14T07:39:04;61.83;;;21.20;;
65315;SDS011;51920;53.952;10.292;2022-10-14T07:41:30;65.13;;;21.63;;
65315;SDS011;51920;53.952;10.292;2022-10-14T07:43:57;64.00;;;21.20;;
65315;SDS011;51920;53.952;10.292;2022-10-14T07:46:30;53.53;;;19.70;;
65315;SDS011;51920;53.952;10.292;2022-10-14T07:48:59;61.25;;;21.30;;
65315;SDS011;51920;53.952;10.292;2022-10-14T07:51:27;63.03;;;21.60;;
65315;SDS011;51920;53.952;10.292;2022-10-14T07:53:53;60.77;;;21.30;;
65315;SDS011;51920;53.952;10.292;2022-10-14T07:56:20;62.35;;;20.65;;
65315;SDS011;51920;53.952;10.292;2022-10-14T07:58:46;66.45;;;22.63;;
65315;SDS011;51920;53.952;10.292;2022-10-14T08:01:12;75.95;;;22.55;;
65315;SDS011;51920;53.952;10.292;2022-10-14T08:03:40;63.07;;;20.10;;
65315;SDS011;51920;53.952;10.292;2022-10-14T08:06:07;61.33;;;21.25;;
65315;SDS011;51920;53.952;10.292;2022-10-14T08:08:33;61.75;;;20.40;;
65315;SDS011;51920;53.952;10.292;2022-10-14T08:11:10;58.08;;;19.60;;
65315;SDS011;51920;53.952;10.292;2022-10-14T08:13:47;57.45;;;19.83;;
65315;SDS011;51920;53.952;10.292;2022-10-14T08:16:14;52.80;;;18.63;;
65315;SDS011;51920;53.952;10.292;2022-10-14T08:18:40;54.58;;;19.50;;
65315;SDS011;51920;53.952;10.292;2022-10-14T08:21:06;54.28;;;19.40;;
65315;SDS011;51920;53.952;10.292;2022-10-14T08:23:31;53.50;;;18.33;;
65315;SDS011;51920;53.952;10.292;2022-10-14T08:25:57;47.60;;;17.50;;
65315;SDS011;51920;53.952;10.292;2022-10-14T08:28:23;44.47;;;16.17;;
65315;SDS011;51920;53.952;10.292;2022-10-14T08:30:48;48.80;;;18.50;;
65315;SDS011;51920;53.952;10.292;2022-10-14T08:33:14;50.30;;;18.05;;
65315;SDS011;51920;53.952;10.292;2022-10-14T08:35:39;49.60;;;17.47;;
65315;SDS011;51920;53.952;10.292;2022-10-14T08:38:05;45.23;;;16.10;;
65315;SDS011;51920;53.952;10.292;2022-10-14T08:40:32;53.60;;;16.70;;
65315;SDS011;51920;53.952;10.292;2022-10-14T08:43:23;51.90;;;16.67;;
65315;SDS011;51920;53.952;10.292;2022-10-14T08:46:12;53.67;;;17.88;;
65315;SDS011;51920;53.952;10.292;2022-10-14T08:48:50;47.25;;;16.40;;
65315;SDS011;51920;53.952;10.292;2022-10-14T08:51:23;52.10;;;18.15;;
65315;SDS011;51920;53.952;10.292;2022-10-14T08:53:52;54.33;;;18.08;;
65315;SDS011;51920;53.952;10.292;2022-10-14T08:56:22;56.57;;;19.20;;
65315;SDS011;51920;53.952;10.292;2022-10-14T08:58:51;61.17;;;19.90;;
65315;SDS011;51920;53.952;10.292;2022-10-14T09:01:32;58.93;;;19.10;;
65315;SDS011;51920;53.952;10.292;2022-10-14T09:04:11;54.30;;;17.83;;
65315;SDS011;51920;53.952;10.292;2022-10-14T09:06:39;47.78;;;17.30;;
65315;SDS011;51920;53.952;10.292;2022-10-14T09:11:41;58.60;;;18.92;;
65315;SDS011;51920;53.952;10.292;2022-10-14T09:14:12;54.03;;;18.63;;
65315;SDS011;51920;53.952;10.292;2022-10-14T09:16:43;57.92;;;18.42;;
65315;SDS011;51920;53.952;10.292;2022-10-14T09:19:13;60.75;;;19.48;;
65315;SDS011;51920;53.952;10.292;2022-10-14T09:21:45;62.35;;;19.85;;
65315;SDS011;51920;53.952;10.292;2022-10-14T09:26:56;54.80;;;17.97;;
65315;SDS011;51920;53.952;10.292;2022-10-14T09:29:29;57.80;;;18.65;;
65315;SDS011;51920;53.952;10.292;2022-10-14T09:31:57;58.58;;;19.83;;
65315;SDS011;51920;53.952;10.292;2022-10-14T09:34:30;64.43;;;19.98;;
65315;SDS011;51920;53.952;10.292;2022-10-14T09:37:14;60.33;;;19.60;;
65315;SDS011;51920;53.952;10.292;2022-10-14T09:39:46;56.47;;;20.23;;
65315;SDS011;51920;53.952;10.292;2022-10-14T09:42:20;55.03;;;19.25;;
65315;SDS011;51920;53.952;10.292;2022-10-14T09:45:02;56.30;;;19.17;;
65315;SDS011;51920;53.952;10.292;2022-10-14T09:47:28;61.08;;;20.67;;
65315;SDS011;51920;53.952;10.292;2022-10-14T09:49:54;57.50;;;19.50;;
65315;SDS011;51920;53.952;10.292;2022-10-14T09:52:21;65.93;;;20.75;;
65315;SDS011;51920;53.952;10.292;2022-10-14T09:54:52;61.40;;;20.45;;
65315;SDS011;51920;53.952;10.292;2022-10-14T09:57:20;58.70;;;21.38;;
65315;SDS011;51920;53.952;10.292;2022-10-14T09:59:48;62.60;;;21.73;;
65315;SDS011;51920;53.952;10.292;2022-10-14T10:02:20;57.60;;;20.45;;
65315;SDS011;51920;53.952;10.292;2022-10-14T10:04:49;63.47;;;22.75;;
65315;SDS011;51920;53.952;10.292;2022-10-14T10:09:55;64.07;;;22.60;;
65315;SDS011;51920;53.952;10.292;2022-10-14T10:12:23;60.25;;;22.08;;
65315;SDS011;51920;53.952;10.292;2022-10-14T10:15:04;66.43;;;23.17;;
65315;SDS011;51920;53.952;10.292;2022-10-14T10:17:33;62.95;;;21.90;;
65315;SDS011;51920;53.952;10.292;2022-10-14T10:20:16;62.90;;;22.00;;
65315;SDS011;51920;53.952;10.292;2022-10-14T10:22:54;71.43;;;23.70;;
65315;SDS011;51920;53.952;10.292;2022-10-14T10:25:21;65.28;;;23.35;;
65315;SDS011;51920;53.952;10.292;2022-10-14T10:27:52;63.55;;;22.55;;
65315;SDS011;51920;53.952;10.292;2022-10-14T10:38:21;58.30;;;21.55;;
65315;SDS011;51920;53.952;10.292;2022-10-14T10:48:45;60.67;;;21.87;;
65315;SDS011;51920;53.952;10.292;2022-10-14T10:54:05;48.55;;;20.63;;
65315;SDS011;51920;53.952;10.292;2022-10-14T10:56:47;48.83;;;21.00;;
65315;SDS011;51920;53.952;10.292;2022-10-14T10:59:22;44.70;;;19.95;;
65315;SDS011;51920;53.952;10.292;2022-10-14T11:14:17;38.55;;;17.73;;
65315;SDS011;51920;53.952;10.292;2022-10-14T11:16:54;40.33;;;17.07;;
65315;SDS011;51920;53.952;10.292;2022-10-14T11:25:21;35.08;;;15.88;;
65315;SDS011;51920;53.952;10.292;2022-10-14T11:28:10;33.05;;;16.52;;
65315;SDS011;51920;53.952;10.292;2022-10-14T11:31:00;34.17;;;16.33;;
65315;SDS011;51920;53.952;10.292;2022-10-14T11:36:52;35.80;;;16.08;;
65315;SDS011;51920;53.952;10.292;2022-10-14T11:44:57;30.50;;;15.77;;
65315;SDS011;51920;53.952;10.292;2022-10-14T11:47:46;32.60;;;15.55;;
65315;SDS011;51920;53.952;10.292;2022-10-14T11:55:28;33.58;;;16.40;;
65315;SDS011;51920;53.952;10.292;2022-10-14T11:57:59;29.60;;;15.57;;
65315;SDS011;51920;53.952;10.292;2022-10-14T12:00:30;27.17;;;14.38;;
65315;SDS011;51920;53.952;10.292;2022-10-14T12:03:45;26.80;;;13.70;;
65315;SDS011;51920;53.952;10.292;2022-10-14T12:08:26;23.20;;;12.27;;
65315;SDS011;51920;53.952;10.292;2022-10-14T12:10:58;23.30;;;13.07;;
65315;SDS011;51920;53.952;10.292;2022-10-14T12:13:33;22.58;;;12.40;;
65315;SDS011;51920;53.952;10.292;2022-10-14T12:16:26;20.02;;;11.35;;
65315;SDS011;51920;53.952;10.292;2022-10-14T12:18:54;25.27;;;12.20;;
65315;SDS011;51920;53.952;10.292;2022-10-14T12:29:26;20.58;;;11.57;;
65315;SDS011;51920;53.952;10.292;2022-10-14T12:34:33;23.45;;;12.65;;
65315;SDS011;51920;53.952;10.292;2022-10-14T12:39:47;22.45;;;12.52;;
65315;SDS011;51920;53.952;10.292;2022-10-14T12:42:12;20.70;;;11.90;;
65315;SDS011;51920;53.952;10.292;2022-10-14T12:47:17;21.88;;;11.98;;
65315;SDS011;51920;53.952;10.292;2022-10-14T12:49:47;24.10;;;12.57;;
65315;SDS011;51920;53.952;10.292;2022-10-14T12:52:17;22.17;;;12.20;;
65315;SDS011;51920;53.952;10.292;2022-10-14T12:54:47;22.13;;;11.23;;
65315;SDS011;51920;53.952;10.292;2022-10-14T12:57:32;22.63;;;11.85;;
65315;SDS011;51920;53.952;10.292;2022-10-14T13:00:02;21.10;;;11.07;;
65315;SDS011;51920;53.952;10.292;2022-10-14T13:02:53;21.58;;;11.60;;
65315;SDS011;51920;53.952;10.292;2022-10-14T13:05:39;20.33;;;10.52;;
65315;SDS011;51920;53.952;10.292;2022-10-14T13:18:53;20.75;;;10.02;;
65315;SDS011;51920;53.952;10.292;2022-10-14T13:23:57;21.13;;;10.68;;
65315;SDS011;51920;53.952;10.292;2022-10-14T13:32:29;16.20;;;9.07;;
65315;SDS011;51920;53.952;10.292;2022-10-14T13:38:00;14.43;;;8.13;;
65315;SDS011;51920;53.952;10.292;2022-10-14T13:40:35;16.97;;;9.50;;
65315;SDS011;51920;53.952;10.292;2022-10-14T13:43:15;16.48;;;9.40;;
65315;SDS011;51920;53.952;10.292;2022-10-14T13:45:50;18.10;;;9.77;;
65315;SDS011;51920;53.952;10.292;2022-10-14T13:48:20;18.52;;;10.07;;
65315;SDS011;51920;53.952;10.292;2022-10-14T13:50:55;22.58;;;11.52;;
65315;SDS011;51920;53.952;10.292;2022-10-14T13:53:31;19.83;;;11.00;;
65315;SDS011;51920;53.952;10.292;2022-10-14T13:55:56;22.05;;;10.90;;
65315;SDS011;51920;53.952;10.292;2022-10-14T13:58:23;22.40;;;10.43;;
65315;SDS011;51920;53.952;10.292;2022-10-14T14:03:22;24.33;;;11.80;;
65315;SDS011;51920;53.952;10.292;2022-10-14T14:05:50;24.77;;;12.48;;
65315;SDS011;51920;53.952;10.292;2022-10-14T14:08:24;24.67;;;11.82;;
65315;SDS011;51920;53.952;10.292;2022-10-14T14:11:03;24.60;;;12.95;;
65315;SDS011;51920;53.952;10.292;2022-10-14T14:13:36;25.10;;;13.10;;
65315;SDS011;51920;53.952;10.292;2022-10-14T14:16:16;23.95;;;12.50;;
65315;SDS011;51920;53.952;10.292;2022-10-14T14:18:46;25.50;;;13.07;;
65315;SDS011;51920;53.952;10.292;2022-10-14T14:21:12;24.27;;;12.70;;
65315;SDS011;51920;53.952;10.292;2022-10-14T14:24:39;24.57;;;13.13;;
65315;SDS011;51920;53.952;10.292;2022-10-14T14:27:02;24.98;;;13.55;;
65315;SDS011;51920;53.952;10.292;2022-10-14T14:29:29;26.33;;;13.43;;
65315;SDS011;51920;53.952;10.292;2022-10-14T14:31:57;26.73;;;13.45;;
65315;SDS011;51920;53.952;10.292;2022-10-14T14:34:24;28.42;;;13.52;;
65315;SDS011;51920;53.952;10.292;2022-10-14T14:36:50;28.23;;;14.00;;
65315;SDS011;51920;53.952;10.292;2022-10-14T14:39:19;24.40;;;13.43;;
65315;SDS011;51920;53.952;10.292;2022-10-14T14:41:53;23.60;;;12.52;;
65315;SDS011;51920;53.952;10.292;2022-10-14T14:44:22;27.15;;;14.10;;
65315;SDS011;51920;53.952;10.292;2022-10-14T14:46:56;26.23;;;13.82;;
65315;SDS011;51920;53.952;10.292;2022-10-14T14:49:27;33.92;;;14.38;;
65315;SDS011;51920;53.952;10.292;2022-10-14T14:51:57;23.43;;;12.77;;
65315;SDS011;51920;53.952;10.292;2022-10-14T14:54:24;24.35;;;13.00;;
65315;SDS011;51920;53.952;10.292;2022-10-14T14:56:55;27.20;;;14.63;;
65315;SDS011;51920;53.952;10.292;2022-10-14T14:59:39;25.70;;;13.05;;
65315;SDS011;51920;53.952;10.292;2022-10-14T15:02:13;20.42;;;12.15;;
65315;SDS011;51920;53.952;10.292;2022-10-14T15:04:43;19.73;;;11.17;;
65315;SDS011;51920;53.952;10.292;2022-10-14T15:07:18;21.35;;;11.88;;
65315;SDS011;51920;53.952;10.292;2022-10-14T15:09:50;21.98;;;11.90;;
65315;SDS011;51920;53.952;10.292;2022-10-14T15:12:20;20.57;;;11.57;;
65315;SDS011;51920;53.952;10.292;2022-10-14T15:14:48;22.65;;;12.00;;
65315;SDS011;51920;53.952;10.292;2022-10-14T15:19:54;19.25;;;10.90;;
65315;SDS011;51920;53.952;10.292;2022-10-14T15:22:42;20.70;;;11.18;;
65315;SDS011;51920;53.952;10.292;2022-10-14T15:27:50;18.65;;;10.93;;
65315;SDS011;51920;53.952;10.292;2022-10-14T15:30:27;19.67;;;11.68;;
65315;SDS011;51920;53.952;10.292;2022-10-14T15:35:53;22.00;;;12.10;;
65315;SDS011;51920;53.952;10.292;2022-10-14T15:38:18;21.50;;;12.07;;
65315;SDS011;51920;53.952;10.292;2022-10-14T15:40:45;22.45;;;11.98;;
65315;SDS011;51920;53.952;10.292;2022-10-14T15:43:21;20.95;;;12.20;;
65315;SDS011;51920;53.952;10.292;2022-10-14T15:45:51;20.90;;;11.60;;
65315;SDS011;51920;53.952;10.292;2022-10-14T15:48:38;20.27;;;11.57;;
65315;SDS011;51920;53.952;10.292;2022-10-14T15:51:05;19.70;;;11.10;;
65315;SDS011;51920;53.952;10.292;2022-10-14T15:53:31;18.08;;;10.80;;
65315;SDS011;51920;53.952;10.292;2022-10-14T15:55:57;18.27;;;10.30;;
65315;SDS011;51920;53.952;10.292;2022-10-14T15:58:24;19.13;;;10.32;;
65315;SDS011;51920;53.952;10.292;2022-10-14T16:00:50;16.33;;;10.25;;
65315;SDS011;51920;53.952;10.292;2022-10-14T16:03:16;16.33;;;10.13;;
65315;SDS011;51920;53.952;10.292;2022-10-14T16:05:43;20.30;;;10.13;;
65315;SDS011;51920;53.952;10.292;2022-10-14T16:08:11;18.63;;;9.53;;
65315;SDS011;51920;53.952;10.292;2022-10-14T16:10:38;14.57;;;9.05;;
65315;SDS011;51920;53.952;10.292;2022-10-14T16:13:04;15.77;;;9.35;;
65315;SDS011;51920;53.952;10.292;2022-10-14T16:18:12;16.48;;;9.18;;
65315;SDS011;51920;53.952;10.292;2022-10-14T16:20:37;15.43;;;8.97;;
65315;SDS011;51920;53.952;10.292;2022-10-14T16:23:02;16.08;;;9.60;;
65315;SDS011;51920;53.952;10.292;2022-10-14T16:25:31;14.00;;;8.80;;
65315;SDS011;51920;53.952;10.292;2022-10-14T16:28:04;21.52;;;11.35;;
65315;SDS011;51920;53.952;10.292;2022-10-14T16:30:35;14.68;;;9.27;;
65315;SDS011;51920;53.952;10.292;2022-10-14T16:33:02;16.05;;;9.63;;
65315;SDS011;51920;53.952;10.292;2022-10-14T16:35:28;28.90;;;15.18;;
65315;SDS011;51920;53.952;10.292;2022-10-14T16:37:53;29.57;;;17.50;;
65315;SDS011;51920;53.952;10.292;2022-10-14T16:40:19;25.23;;;16.55;;
65315;SDS011;51920;53.952;10.292;2022-10-14T16:42:45;16.27;;;10.33;;
65315;SDS011;51920;53.952;10.292;2022-10-14T16:45:10;18.57;;;10.80;;
65315;SDS011;51920;53.952;10.292;2022-10-14T16:47:36;16.13;;;10.07;;